createdAt,value
2022-11-19T01:14:43.654Z,15.43
2022-11-19T01:17:31.705Z,12.93
2022-11-19T01:20:21.536Z,12.37
2022-11-19T01:23:09.900Z,11.63
2022-11-19T01:25:57.991Z,12.00
2022-11-19T01:28:46.801Z,11.70
2022-11-19T01:31:34.996Z,12.07
2022-11-19T01:34:23.087Z,11.70
2022-11-19T01:37:12.512Z,11.73
2022-11-19T01:40:00.682Z,11.30
2022-11-19T01:42:51.357Z,11.93
2022-11-19T01:45:41.807Z,11.40
2022-11-19T01:48:33.556Z,11.87
2022-11-19T01:51:25.947Z,10.77
2022-11-19T01:54:22.572Z,10.87
2022-11-19T01:57:15.617Z,9.93
2022-11-19T02:00:03.940Z,10.47
2022-11-19T02:02:52.084Z,11.07
2022-11-19T02:05:41.382Z,10.60
2022-11-19T02:08:41.670Z,9.77
2022-11-19T02:12:03.399Z,10.23
2022-11-19T02:15:24.202Z,9.10
2022-11-19T02:18:44.074Z,9.60
2022-11-19T02:21:37.224Z,8.93
2022-11-19T02:24:43.873Z,10.00
2022-11-19T02:28:01.660Z,9.33
2022-11-19T02:30:53.721Z,9.80
2022-11-19T02:33:49.494Z,8.90
2022-11-19T02:36:43.241Z,10.60
2022-11-19T02:39:40.580Z,9.53
2022-11-19T02:42:32.459Z,9.60
2022-11-19T02:45:25.744Z,8.40
2022-11-19T02:48:19.127Z,8.33
2022-11-19T02:51:09.043Z,9.07
2022-11-19T02:53:59.121Z,9.93
2022-11-19T02:56:51.448Z,9.97
2022-11-19T03:00:03.304Z,8.73
2022-11-19T03:03:28.777Z,9.70
2022-11-19T03:06:23.079Z,9.27
2022-11-19T03:09:11.622Z,9.03
2022-11-19T03:12:09.005Z,9.43
2022-11-19T03:15:24.680Z,9.43
2022-11-19T03:18:15.650Z,8.87
2022-11-19T03:21:08.760Z,10.13
2022-11-19T03:24:02.045Z,9.47
2022-11-19T03:26:55.617Z,9.63
2022-11-19T03:29:47.969Z,9.67
2022-11-19T03:32:39.129Z,9.90
2022-11-19T03:35:30.518Z,9.13
2022-11-19T03:38:24.362Z,9.60
2022-11-19T03:41:16.854Z,9.47
2022-11-19T03:44:15.150Z,9.50
2022-11-19T03:47:08.989Z,9.10
2022-11-19T03:50:03.277Z,10.03
2022-11-19T03:52:51.628Z,9.90
2022-11-19T03:55:45.452Z,10.00
2022-11-19T03:58:39.587Z,9.77
2022-11-19T04:01:27.703Z,9.40
2022-11-19T04:04:33.221Z,9.87
2022-11-19T04:07:22.977Z,9.97
2022-11-19T04:10:11.143Z,10.03
2022-11-19T04:12:59.205Z,9.53
2022-11-19T04:15:48.655Z,9.37
2022-11-19T04:18:36.667Z,10.17
2022-11-19T04:21:24.746Z,10.07
2022-11-19T04:24:12.891Z,9.80
2022-11-19T04:27:01.083Z,9.80
2022-11-19T04:29:49.082Z,11.37
2022-11-19T04:32:38.556Z,10.67
2022-11-19T04:35:26.684Z,10.57
2022-11-19T04:38:14.801Z,9.73
2022-11-19T04:41:02.841Z,11.10
2022-11-19T04:43:50.916Z,10.70
2022-11-19T04:46:39.004Z,10.33
2022-11-19T04:49:28.409Z,9.97
2022-11-19T04:52:16.492Z,10.53
2022-11-19T04:55:04.834Z,10.20
2022-11-19T04:57:53.424Z,9.50
2022-11-19T05:00:41.545Z,8.93
2022-11-19T05:03:29.746Z,9.53
2022-11-19T05:06:19.344Z,8.80
2022-11-19T05:09:07.535Z,9.27
2022-11-19T05:11:55.592Z,9.00
2022-11-19T05:14:43.681Z,8.60
2022-11-19T05:17:31.740Z,8.80
2022-11-19T05:20:19.846Z,9.30
2022-11-19T05:23:09.482Z,8.87
2022-11-19T05:25:57.488Z,9.30
2022-11-19T05:28:46.187Z,8.20
2022-11-19T05:31:35.676Z,9.37
2022-11-19T05:34:23.779Z,9.63
2022-11-19T05:37:11.915Z,9.43
2022-11-19T05:40:01.366Z,9.67
2022-11-19T05:42:49.576Z,9.87
2022-11-19T05:45:37.602Z,9.80
2022-11-19T05:48:25.641Z,9.83
2022-11-19T05:51:15.136Z,9.30
2022-11-19T05:54:03.298Z,8.80
2022-11-19T05:56:52.764Z,8.37
2022-11-19T05:59:43.819Z,9.10
2022-11-19T06:02:32.545Z,8.80
2022-11-19T06:05:20.672Z,8.83
2022-11-19T06:08:08.787Z,9.03
2022-11-19T06:10:56.833Z,8.63
2022-11-19T06:13:46.242Z,8.53
2022-11-19T06:16:34.312Z,8.97
2022-11-19T06:19:23.086Z,7.90
2022-11-19T06:22:11.770Z,8.37
2022-11-19T06:24:59.766Z,7.50
2022-11-19T06:27:47.836Z,8.57
2022-11-19T06:30:37.512Z,7.90
2022-11-19T06:33:26.918Z,11.50
2022-11-19T06:36:15.551Z,7.90
2022-11-19T06:39:03.758Z,7.80
2022-11-19T06:41:51.835Z,8.00
2022-11-19T06:44:39.865Z,7.07
2022-11-19T06:47:31.175Z,7.30
2022-11-19T06:50:19.418Z,6.97
2022-11-19T06:53:07.541Z,6.97
2022-11-19T06:55:57.920Z,6.70
2022-11-19T06:58:46.271Z,6.70
2022-11-19T07:01:34.499Z,6.47
2022-11-19T07:04:24.070Z,6.90
2022-11-19T07:07:12.117Z,7.30
2022-11-19T07:10:00.161Z,6.90
2022-11-19T07:12:48.239Z,7.17
2022-11-19T07:15:36.467Z,6.83
2022-11-19T07:18:24.605Z,7.23
2022-11-19T07:21:13.969Z,6.73
2022-11-19T07:24:03.964Z,6.97
2022-11-19T07:26:52.215Z,7.07
2022-11-19T07:29:40.400Z,6.03
2022-11-19T07:32:28.469Z,7.47
2022-11-19T07:35:16.834Z,7.03
2022-11-19T07:38:06.685Z,7.47
2022-11-19T07:40:54.827Z,6.10
2022-11-19T07:43:41.891Z,6.97
2022-11-19T07:46:29.947Z,7.10
2022-11-19T07:49:18.482Z,7.10
2022-11-19T07:52:06.760Z,6.60
2022-11-19T07:54:56.293Z,6.80
2022-11-19T07:57:44.434Z,6.10
2022-11-19T08:00:32.492Z,6.07
2022-11-19T08:03:20.583Z,6.00
2022-11-19T08:06:09.839Z,6.03
2022-11-19T08:08:58.592Z,6.07
2022-11-19T08:11:48.361Z,6.10
2022-11-19T08:14:36.496Z,6.13
2022-11-19T08:17:41.973Z,6.00
2022-11-19T08:20:29.980Z,6.30
2022-11-19T08:23:18.146Z,5.83
2022-11-19T08:26:08.334Z,6.23
2022-11-19T08:28:57.811Z,5.80
2022-11-19T08:31:47.550Z,5.63
2022-11-19T08:34:35.664Z,5.73
2022-11-19T08:37:23.773Z,5.57
2022-11-19T08:40:12.468Z,5.90
2022-11-19T08:43:02.161Z,6.40
2022-11-19T08:45:54.665Z,6.37
2022-11-19T08:48:42.741Z,5.90
2022-11-19T08:51:31.067Z,6.47
2022-11-19T08:54:19.709Z,6.17
2022-11-19T08:57:08.064Z,5.90
2022-11-19T08:59:58.215Z,5.93
2022-11-19T09:02:49.676Z,6.40
2022-11-19T09:05:37.806Z,6.17
2022-11-19T09:08:25.951Z,6.10
2022-11-19T09:11:16.881Z,6.83
2022-11-19T09:14:05.055Z,6.00
2022-11-19T09:16:53.127Z,6.37
2022-11-19T09:19:42.580Z,6.80
2022-11-19T09:22:31.374Z,6.70
2022-11-19T09:25:19.607Z,6.40
2022-11-19T09:28:07.742Z,6.50
2022-11-19T09:30:57.454Z,6.17
2022-11-19T09:33:47.453Z,6.40
2022-11-19T09:36:36.994Z,6.53
2022-11-19T09:39:25.793Z,5.70
2022-11-19T09:42:17.447Z,6.67
2022-11-19T09:45:23.328Z,6.87
2022-11-19T09:48:22.389Z,6.30
2022-11-19T09:51:15.144Z,6.27
2022-11-19T09:54:08.287Z,7.10
2022-11-19T09:57:00.515Z,6.60
2022-11-19T09:59:55.027Z,6.80
2022-11-19T10:02:43.176Z,6.03
2022-11-19T10:05:45.902Z,6.50
2022-11-19T10:08:47.968Z,6.50
2022-11-19T10:11:48.602Z,6.33
2022-11-19T10:14:55.883Z,6.70
2022-11-19T10:17:55.031Z,6.77
2022-11-19T10:20:56.535Z,6.53
2022-11-19T10:23:50.601Z,6.37
2022-11-19T10:26:42.345Z,6.47
2022-11-19T10:29:35.680Z,6.53
2022-11-19T10:32:30.763Z,7.20
2022-11-19T10:35:23.619Z,6.90
2022-11-19T10:38:18.249Z,6.23
2022-11-19T10:41:13.569Z,6.60
2022-11-19T10:44:33.639Z,6.23
2022-11-19T10:47:25.060Z,6.10
2022-11-19T10:50:18.294Z,5.57
2022-11-19T10:53:13.134Z,6.87
2022-11-19T10:56:05.140Z,6.60
2022-11-19T10:58:55.888Z,6.77
2022-11-19T11:01:47.667Z,6.07
2022-11-19T11:04:35.898Z,5.77
2022-11-19T11:07:23.962Z,5.80
2022-11-19T11:10:29.731Z,5.97
2022-11-19T11:13:43.314Z,5.70
2022-11-19T11:16:44.812Z,5.97
2022-11-19T11:19:35.172Z,6.10
2022-11-19T11:22:24.118Z,6.80
2022-11-19T11:25:21.505Z,5.77
2022-11-19T11:28:13.903Z,6.17
2022-11-19T11:31:03.133Z,6.13
2022-11-19T11:33:57.552Z,6.17
2022-11-19T11:36:47.402Z,6.33
2022-11-19T11:39:39.628Z,5.50
2022-11-19T11:42:29.734Z,6.57
2022-11-19T11:45:23.932Z,7.20
2022-11-19T11:48:20.535Z,6.83
2022-11-19T11:51:08.720Z,6.10
2022-11-19T11:54:18.301Z,6.30
2022-11-19T11:57:17.123Z,6.07
2022-11-19T12:00:30.087Z,6.10
2022-11-19T12:03:20.074Z,6.70
2022-11-19T12:06:16.466Z,6.17
2022-11-19T12:09:11.332Z,6.00
2022-11-19T12:12:04.417Z,6.20
2022-11-19T12:14:59.914Z,6.47
2022-11-19T12:17:53.813Z,6.27
2022-11-19T12:20:48.937Z,5.90
2022-11-19T12:24:03.988Z,6.07
2022-11-19T12:27:04.957Z,5.93
2022-11-19T12:30:02.607Z,6.13
2022-11-19T12:33:20.152Z,5.67
2022-11-19T12:36:15.344Z,6.30
2022-11-19T12:39:11.233Z,5.50
2022-11-19T12:42:12.705Z,6.30
2022-11-19T12:45:07.981Z,5.87
2022-11-19T12:48:30.038Z,6.20
2022-11-19T12:51:32.609Z,6.23
2022-11-19T12:54:35.166Z,6.13
2022-11-19T12:57:41.917Z,5.10
2022-11-19T13:00:34.585Z,5.13
2022-11-19T13:03:37.427Z,5.67
2022-11-19T13:06:32.328Z,5.73
2022-11-19T13:09:30.222Z,5.33
2022-11-19T13:12:22.484Z,5.40
2022-11-19T13:15:20.506Z,5.50
2022-11-19T13:18:14.058Z,5.53
2022-11-19T13:21:05.167Z,5.67
2022-11-19T13:23:55.275Z,6.10
2022-11-19T13:26:43.499Z,5.57
2022-11-19T13:29:40.044Z,5.57
2022-11-19T13:32:38.449Z,5.17
2022-11-19T13:35:31.847Z,5.60
2022-11-19T13:38:24.724Z,5.80
2022-11-19T13:41:16.380Z,5.17
2022-11-19T13:44:22.836Z,4.93
2022-11-19T13:47:19.129Z,5.03
2022-11-19T13:50:17.612Z,5.20
2022-11-19T13:53:09.023Z,5.10
2022-11-19T13:55:59.379Z,4.93
2022-11-19T13:58:49.841Z,4.57
2022-11-19T14:01:59.124Z,4.60
2022-11-19T14:05:04.001Z,3.73
2022-11-19T14:08:14.731Z,4.43
2022-11-19T14:11:16.719Z,4.10
2022-11-19T14:14:32.825Z,4.23
2022-11-19T14:17:45.819Z,6.47
2022-11-19T14:20:55.807Z,9.50
2022-11-19T14:24:06.890Z,7.20
2022-11-19T14:27:14.757Z,6.17
2022-11-19T14:30:05.289Z,5.43
2022-11-19T14:32:53.797Z,5.03
2022-11-19T14:35:42.090Z,7.20
2022-11-19T14:38:40.301Z,9.00
2022-11-19T14:41:32.452Z,6.23
2022-11-19T14:44:35.901Z,5.87
2022-11-19T14:47:34.416Z,6.80
2022-11-19T14:50:27.521Z,8.03
2022-11-19T14:53:20.644Z,7.80
2022-11-19T14:56:13.133Z,7.53
2022-11-19T14:59:09.634Z,7.80
2022-11-19T15:02:01.656Z,7.20
2022-11-19T15:04:58.116Z,7.07
2022-11-19T15:07:52.887Z,7.67
2022-11-19T15:10:49.052Z,7.60
2022-11-19T15:13:39.190Z,7.13
2022-11-19T15:16:29.793Z,7.00
2022-11-19T15:19:32.857Z,7.23
2022-11-19T15:22:34.029Z,6.07
2022-11-19T15:25:35.491Z,7.30
2022-11-19T15:28:40.571Z,8.00
2022-11-19T15:31:46.708Z,8.27
2022-11-19T15:35:10.818Z,7.90
2022-11-19T15:38:04.900Z,8.07
2022-11-19T15:40:56.258Z,8.17
2022-11-19T15:43:49.360Z,7.57
2022-11-19T15:46:45.837Z,8.03
2022-11-19T15:49:37.208Z,8.87
2022-11-19T15:52:28.703Z,8.70
2022-11-19T15:55:22.508Z,10.23
2022-11-19T15:58:15.759Z,8.23
2022-11-19T16:01:04.355Z,8.23
2022-11-19T16:03:55.439Z,7.30
2022-11-19T16:06:45.813Z,7.33
2022-11-19T16:09:35.440Z,6.83
2022-11-19T16:12:42.756Z,6.20
2022-11-19T16:15:48.207Z,5.87
2022-11-19T16:18:46.357Z,6.23
2022-11-19T16:21:39.957Z,6.80
2022-11-19T16:24:47.467Z,6.57
2022-11-19T16:27:35.605Z,6.43
2022-11-19T16:30:25.772Z,6.37
2022-11-19T16:33:17.365Z,6.70
2022-11-19T16:36:13.653Z,7.13
2022-11-19T16:39:05.374Z,7.03
2022-11-19T16:42:15.596Z,6.47
2022-11-19T16:45:09.889Z,6.23
2022-11-19T16:47:59.788Z,6.07
2022-11-19T16:50:48.040Z,6.37
2022-11-19T16:53:46.513Z,6.80
2022-11-19T16:56:43.544Z,6.50
2022-11-19T16:59:33.118Z,5.60
2022-11-19T17:02:23.711Z,5.73
2022-11-19T17:05:14.631Z,6.43
2022-11-19T17:08:07.185Z,5.87
2022-11-19T17:11:35.276Z,6.13
2022-11-19T17:14:47.549Z,6.00
2022-11-19T17:17:41.673Z,6.23
2022-11-19T17:21:01.588Z,6.03
2022-11-19T17:23:52.026Z,6.00
2022-11-19T17:26:40.417Z,5.77
2022-11-19T17:29:29.997Z,7.03
2022-11-19T17:32:18.547Z,6.20
2022-11-19T17:35:10.262Z,6.07
2022-11-19T17:37:59.716Z,6.43
2022-11-19T17:40:49.343Z,6.00
2022-11-19T17:43:56.674Z,6.10
2022-11-19T17:46:46.342Z,6.13
2022-11-19T17:49:34.524Z,5.77
2022-11-19T17:52:24.888Z,6.83
2022-11-19T17:55:18.838Z,6.73
2022-11-19T17:58:06.913Z,7.50
2022-11-19T18:00:55.052Z,7.33
2022-11-19T18:03:45.183Z,6.67
2022-11-19T18:06:33.646Z,7.10
2022-11-19T18:09:21.913Z,6.57
2022-11-19T18:12:15.874Z,8.07
2022-11-19T18:15:04.228Z,9.23
2022-11-19T18:17:54.433Z,8.83
2022-11-19T18:20:43.921Z,8.53
2022-11-19T18:23:32.037Z,7.87
2022-11-19T18:26:22.652Z,7.40
2022-11-19T18:29:11.330Z,6.80
2022-11-19T18:31:59.457Z,7.40
2022-11-19T18:34:47.729Z,6.17
2022-11-19T18:37:37.573Z,6.70
2022-11-19T18:40:25.816Z,7.70
2022-11-19T18:43:33.238Z,7.70
2022-11-19T18:46:23.292Z,7.87
2022-11-19T18:49:13.659Z,8.43
2022-11-19T18:52:02.086Z,8.70
2022-11-19T18:54:51.571Z,8.53
2022-11-19T18:57:39.692Z,8.73
2022-11-19T19:00:27.800Z,8.20
2022-11-19T19:03:16.182Z,8.90
2022-11-19T19:06:04.577Z,9.20
2022-11-19T19:08:52.743Z,8.53
2022-11-19T19:11:59.705Z,8.43
2022-11-19T19:14:51.510Z,8.13
2022-11-19T19:17:39.774Z,8.37
2022-11-19T19:20:27.836Z,8.03
2022-11-19T19:23:16.035Z,8.13
2022-11-19T19:26:04.174Z,8.57
2022-11-19T19:28:56.162Z,8.23
2022-11-19T19:31:44.219Z,7.73
2022-11-19T19:34:32.310Z,8.00
2022-11-19T19:37:20.650Z,7.50
2022-11-19T19:40:11.182Z,7.67
2022-11-19T19:43:03.076Z,7.70
2022-11-19T19:45:52.550Z,8.23
2022-11-19T19:48:41.108Z,7.60
2022-11-19T19:51:30.777Z,7.43
2022-11-19T19:54:18.842Z,8.13
2022-11-19T19:57:07.518Z,7.60
2022-11-19T19:59:55.578Z,7.50
2022-11-19T20:02:45.223Z,8.10
2022-11-19T20:05:33.540Z,8.07
2022-11-19T20:08:23.088Z,7.83
2022-11-19T20:11:13.129Z,7.10
2022-11-19T20:14:01.396Z,8.07
2022-11-19T20:16:50.081Z,7.73
2022-11-19T20:19:39.622Z,8.60
2022-11-19T20:22:27.688Z,9.90
2022-11-19T20:25:15.961Z,8.53
2022-11-19T20:28:04.092Z,7.93
2022-11-19T20:30:52.202Z,8.23
2022-11-19T20:33:41.453Z,7.70
2022-11-19T20:36:33.069Z,7.10
2022-11-19T20:39:21.389Z,8.27
2022-11-19T20:42:27.507Z,7.70
2022-11-19T20:45:16.113Z,7.43
2022-11-19T20:48:04.716Z,7.80
2022-11-19T20:50:52.909Z,7.20
2022-11-19T20:53:42.434Z,7.77
2022-11-19T20:56:30.664Z,7.40
2022-11-19T20:59:19.378Z,7.23
2022-11-19T21:02:08.283Z,8.03
2022-11-19T21:04:57.259Z,7.17
2022-11-19T21:07:45.397Z,8.10
2022-11-19T21:10:34.953Z,8.03
2022-11-19T21:13:23.449Z,7.43
2022-11-19T21:16:14.704Z,7.27
2022-11-19T21:19:03.328Z,6.67
2022-11-19T21:21:51.403Z,7.17
2022-11-19T21:24:40.510Z,7.23
2022-11-19T21:27:29.978Z,7.17
2022-11-19T21:30:19.789Z,7.10
2022-11-19T21:33:08.263Z,7.60
2022-11-19T21:35:57.761Z,7.87
2022-11-19T21:38:45.764Z,7.40
2022-11-19T21:41:34.216Z,7.60
2022-11-19T21:44:25.955Z,7.23
2022-11-19T21:47:15.098Z,6.70
2022-11-19T21:50:03.152Z,7.13
2022-11-19T21:52:51.183Z,7.37
2022-11-19T21:55:39.477Z,6.40
2022-11-19T21:58:27.560Z,7.07
2022-11-19T22:01:17.419Z,6.30
2022-11-19T22:04:05.959Z,6.67
2022-11-19T22:06:54.075Z,6.30
2022-11-19T22:09:42.254Z,6.00
2022-11-19T22:12:30.436Z,6.20
2022-11-19T22:15:18.813Z,6.07
2022-11-19T22:18:08.536Z,6.23
2022-11-19T22:21:04.165Z,6.37
2022-11-19T22:23:55.435Z,6.33
2022-11-19T22:26:43.814Z,6.40
2022-11-19T22:29:31.944Z,7.17
2022-11-19T22:32:20.694Z,6.00
2022-11-19T22:35:10.559Z,6.50
2022-11-19T22:37:58.606Z,6.17
2022-11-19T22:40:46.641Z,6.43
2022-11-19T22:43:36.075Z,5.90
2022-11-19T22:46:24.157Z,6.30
2022-11-19T22:49:12.192Z,5.73
2022-11-19T22:52:01.628Z,6.50
2022-11-19T22:54:49.949Z,6.90
2022-11-19T22:57:37.985Z,7.70
2022-11-19T23:00:41.787Z,9.87
2022-11-19T23:03:30.160Z,9.13
2022-11-19T23:06:18.676Z,8.67
2022-11-19T23:09:08.909Z,8.37
2022-11-19T23:12:14.473Z,8.90
2022-11-19T23:15:02.563Z,8.70
2022-11-19T23:17:50.705Z,8.53
2022-11-19T23:20:38.958Z,9.27
2022-11-19T23:23:27.270Z,6.83
2022-11-19T23:26:18.560Z,6.03
2022-11-19T23:29:07.359Z,6.23
2022-11-19T23:31:55.499Z,6.60
2022-11-19T23:34:43.596Z,6.20
2022-11-19T23:37:31.714Z,5.53
2022-11-19T23:40:19.725Z,6.07
2022-11-19T23:43:09.134Z,5.87
2022-11-19T23:46:03.577Z,6.93
2022-11-19T23:48:52.222Z,8.20
2022-11-19T23:51:41.239Z,9.33
2022-11-19T23:54:29.436Z,9.53
2022-11-19T23:57:17.530Z,9.10
